Time;durP1;ratioP1;P1;durP2;ratioP2;P2;SDS_P1;SDS_P2;PMS_P1;PMS_P2;Temp;Humidity;BMP_temperature;BMP_pressure;BME280_temperature;BME280_humidity;BME280_pressure;Samples;Min_cycle;Max_cycle;Signal;HPM_P1;HPM_P2
2023/07/14 00:04:44;;;;;;;5.78;3.13;;;;;;;17.24;60.13;100738.09;20947230;28;20603;-77
2023/07/14 00:14:47;;;;;;;9.15;4.00;;;;;;;16.67;61.75;100737.28;20945474;28;20223;-76
2023/07/14 00:24:49;;;;;;;6.47;3.40;;;;;;;16.89;59.40;100738.72;20945536;28;20195;-77
2023/07/14 00:34:52;;;;;;;6.85;3.70;;;;;;;16.78;59.93;100726.22;20942106;28;20254;-76
2023/07/14 00:44:55;;;;;;;5.47;2.97;;;;;;;16.72;59.89;100719.97;20918636;28;20195;-77
2023/07/14 00:54:58;;;;;;;6.67;3.20;;;;;;;16.62;59.00;100714.81;20946199;28;20527;-76
2023/07/14 01:05:04;;;;;;;7.75;3.47;;;;;;;15.90;60.88;100704.41;20931171;28;20191;-76
2023/07/14 01:15:07;;;;;;;5.95;3.20;;;;;;;16.64;57.91;100689.69;20960247;28;20227;-76
2023/07/14 01:25:26;;;;;;;6.18;2.80;;;;;;;16.66;58.60;100701.50;20959846;28;20256;-76
2023/07/14 01:35:32;;;;;;;4.27;2.33;;;;;;;16.35;60.19;100699.38;20961134;28;20211;-78
2023/07/14 01:45:44;;;;;;;5.22;3.05;;;;;;;16.04;60.03;100687.81;20956815;28;20245;-77
2023/07/14 01:55:47;;;;;;;3.05;2.35;;;;;;;16.75;57.30;100690.00;20942837;28;20276;-76
2023/07/14 02:05:50;;;;;;;5.47;2.63;;;;;;;16.86;57.41;100693.97;20955446;28;20952;-76
2023/07/14 02:15:53;;;;;;;8.57;3.43;;;;;;;16.54;57.33;100698.72;20970588;28;20276;-77
2023/07/14 02:26:32;;;;;;;3.55;2.70;;;;;;;16.01;61.24;100694.22;20953903;28;20217;-78
2023/07/14 02:36:53;;;;;;;5.45;3.30;;;;;;;16.24;61.57;100701.03;20965583;28;20484;-77
2023/07/14 02:47:03;;;;;;;7.80;4.03;;;;;;;16.39;61.44;100694.59;20946828;28;20264;-76
2023/07/14 02:57:06;;;;;;;9.73;4.20;;;;;;;16.00;62.33;100695.41;20951437;28;20218;-76
2023/07/14 03:07:09;;;;;;;6.37;3.80;;;;;;;16.04;61.32;100693.50;20959399;28;20199;-76
2023/07/14 03:17:12;;;;;;;8.87;3.87;;;;;;;16.06;62.05;100669.25;20949770;28;20219;-77
2023/07/14 03:27:14;;;;;;;5.47;4.17;;;;;;;16.20;61.32;100671.72;20906360;28;20195;-78
2023/07/14 03:37:17;;;;;;;9.80;4.22;;;;;;;16.15;61.53;100663.44;20966488;28;20215;-78
2023/07/14 03:47:20;;;;;;;5.90;3.90;;;;;;;16.12;61.29;100650.78;20946380;28;20274;-76
2023/07/14 03:57:23;;;;;;;5.20;4.07;;;;;;;15.88;62.25;100655.69;20935816;28;20304;-76
2023/07/14 04:07:25;;;;;;;6.55;4.05;;;;;;;16.24;61.07;100660.47;20914638;28;20332;-77
2023/07/14 04:17:29;;;;;;;6.88;3.92;;;;;;;16.06;60.67;100657.06;20945703;28;20215;-77
2023/07/14 04:27:33;;;;;;;6.23;3.80;;;;;;;16.59;58.35;100657.88;20919930;28;20257;-77
2023/07/14 04:37:35;;;;;;;5.13;3.55;;;;;;;16.95;57.12;100642.63;20960950;28;20493;-76
2023/07/14 04:47:38;;;;;;;5.07;3.20;;;;;;;16.55;58.06;100645.56;20960586;28;20615;-77
2023/07/14 04:57:41;;;;;;;5.15;2.67;;;;;;;17.32;56.32;100631.84;20930745;28;20272;-76
2023/07/14 05:07:43;;;;;;;2.60;2.20;;;;;;;17.44;56.32;100637.44;20931443;28;20244;-76
2023/07/14 05:17:46;;;;;;;5.97;2.75;;;;;;;17.85;55.19;100639.66;20960654;28;20288;-78
2023/07/14 05:27:49;;;;;;;4.00;2.00;;;;;;;17.20;54.94;100632.75;20953819;28;20191;-78
2023/07/14 05:37:53;;;;;;;4.97;2.07;;;;;;;17.86;53.06;100629.94;20952884;28;20215;-78
2023/07/14 05:47:56;;;;;;;5.18;2.05;;;;;;;18.06;53.95;100624.28;20940538;28;20215;-77
2023/07/14 05:57:58;;;;;;;3.17;1.90;;;;;;;17.88;54.87;100630.38;20948143;28;20253;-77
2023/07/14 06:08:01;;;;;;;8.45;2.50;;;;;;;18.42;54.52;100628.75;20938756;28;20191;-78
2023/07/14 06:18:04;;;;;;;14.50;2.58;;;;;;;17.95;55.12;100626.06;20949421;28;20285;-79
2023/07/14 06:28:07;;;;;;;4.60;2.17;;;;;;;18.07;52.21;100621.06;20924803;28;20485;-78
2023/07/14 06:38:10;;;;;;;3.77;1.90;;;;;;;18.09;52.78;100618.66;20960604;28;20361;-78
2023/07/14 06:48:12;;;;;;;3.25;1.63;;;;;;;17.96;51.90;100613.47;20944882;28;20227;-79
2023/07/14 06:58:15;;;;;;;4.22;1.88;;;;;;;17.84;52.35;100608.72;20954513;28;20280;-79
2023/07/14 07:08:18;;;;;;;6.78;2.03;;;;;;;19.01;49.14;100602.63;20953523;28;20207;-79
2023/07/14 07:18:25;;;;;;;3.85;1.88;;;;;;;18.82;49.57;100594.97;20947700;28;20249;-78
2023/07/14 07:28:28;;;;;;;4.20;1.80;;;;;;;18.69;50.20;100589.81;20946106;28;20496;-79
2023/07/14 07:38:31;;;;;;;2.67;1.67;;;;;;;19.00;48.23;100586.72;20959562;28;20219;-78
2023/07/14 07:48:35;;;;;;;4.28;1.58;;;;;;;19.52;46.62;100576.59;20921487;28;20219;-79
2023/07/14 07:58:39;;;;;;;3.92;1.20;;;;;;;19.57;45.60;100564.84;20930179;28;20215;-78
2023/07/14 08:08:42;;;;;;;1.85;1.10;;;;;;;20.34;43.21;100550.00;20966966;28;20191;-78
2023/07/14 08:18:44;;;;;;;3.20;1.30;;;;;;;20.14;43.50;100546.47;20942876;28;20634;-79
2023/07/14 08:28:47;;;;;;;2.30;1.20;;;;;;;20.50;43.37;100542.03;20892733;28;20199;-79
2023/07/14 08:38:50;;;;;;;3.53;1.30;;;;;;;20.64;41.90;100530.78;20972938;28;20450;-81
2023/07/14 08:49:04;;;;;;;2.53;1.25;;;;;;;21.27;40.77;100517.44;20924016;28;20223;-79
2023/07/14 08:59:13;;;;;;;3.40;1.40;;;;;;;21.84;41.54;100509.19;20950590;28;20280;-79
2023/07/14 09:09:24;;;;;;;6.72;1.60;;;;;;;21.03;40.46;100518.88;20974699;28;20191;-78
2023/07/14 09:19:51;;;;;;;3.45;1.50;;;;;;;22.31;37.56;100496.69;20956470;28;20618;-78
2023/07/14 09:29:54;;;;;;;2.25;1.38;;;;;;;21.36;38.99;100498.69;20937530;28;20230;-79
2023/07/14 09:40:23;;;;;;;2.95;1.40;;;;;;;21.26;39.22;100482.28;20949655;28;20268;-80
2023/07/14 09:50:26;;;;;;;2.70;1.20;;;;;;;22.79;35.69;100472.22;20970023;28;20631;-79
2023/07/14 10:00:39;;;;;;;2.20;1.30;;;;;;;22.74;35.61;100469.72;20962432;28;20265;-80
2023/07/14 10:10:44;;;;;;;2.80;1.25;;;;;;;22.13;35.65;100462.25;20954503;28;20296;-81
2023/07/14 10:21:06;;;;;;;4.32;1.50;;;;;;;22.90;34.86;100449.25;20964433;28;20219;-79
2023/07/14 10:31:40;;;;;;;2.45;1.30;;;;;;;22.97;33.92;100428.38;20952727;28;20661;-80
2023/07/14 10:41:47;;;;;;;3.85;1.42;;;;;;;23.53;34.05;100410.16;20966399;28;20618;-80
2023/07/14 10:51:54;;;;;;;4.63;1.48;;;;;;;23.13;34.07;100400.84;20949511;28;20647;-82
2023/07/14 11:02:00;;;;;;;2.00;1.52;;;;;;;22.97;33.44;100391.06;20959720;28;20287;-78
2023/07/14 11:12:25;;;;;;;3.10;1.67;;;;;;;23.73;33.42;100371.13;21006073;28;20207;-79
2023/07/14 11:22:33;;;;;;;4.43;1.75;;;;;;;23.05;32.44;100372.59;20975579;28;20523;-79
2023/07/14 11:32:47;;;;;;;3.45;1.33;;;;;;;23.21;32.41;100355.72;20946754;28;20272;-78
2023/07/14 11:42:54;;;;;;;2.38;1.67;;;;;;;23.62;32.47;100335.06;20948787;28;20226;-80
2023/07/14 11:52:59;;;;;;;1.55;1.20;;;;;;;24.07;31.56;100313.81;20940886;28;20696;-79
2023/07/14 12:03:03;;;;;;;4.95;1.25;;;;;;;23.87;32.39;100312.75;20971800;28;20276;-79
2023/07/14 12:13:33;;;;;;;5.85;1.48;;;;;;;25.12;28.81;100300.91;20945596;28;20281;-79
2023/07/14 12:23:36;;;;;;;2.33;1.30;;;;;;;25.09;30.09;100279.56;20945609;28;20241;-80
2023/07/14 12:33:39;;;;;;;4.90;1.50;;;;;;;25.52;30.45;100256.78;20942246;28;20199;-79
2023/07/14 12:43:43;;;;;;;4.45;1.60;;;;;;;25.43;29.20;100235.53;20974691;28;20272;-79
2023/07/14 12:54:13;;;;;;;2.47;1.30;;;;;;;24.99;28.28;100216.34;20939576;28;20272;-80
2023/07/14 13:04:16;;;;;;;3.35;1.55;;;;;;;24.87;29.49;100209.09;20938741;28;20284;-77
2023/07/14 13:14:26;;;;;;;2.30;1.33;;;;;;;25.96;27.61;100185.72;20938852;28;20219;-78
2023/07/14 13:24:32;;;;;;;3.65;1.50;;;;;;;24.34;29.16;100180.91;20910013;28;20310;-79
2023/07/14 13:34:38;;;;;;;2.38;1.65;;;;;;;24.43;29.56;100163.97;20933376;28;20199;-78
2023/07/14 13:44:48;;;;;;;2.92;1.63;;;;;;;24.85;29.06;100149.09;20953671;28;20475;-79
2023/07/14 13:54:58;;;;;;;3.45;1.90;;;;;;;25.06;28.61;100141.41;20939952;28;20223;-80
2023/07/14 14:05:00;;;;;;;5.63;1.45;;;;;;;25.04;28.36;100127.44;20960854;28;20238;-79
2023/07/14 14:15:03;;;;;;;5.25;1.90;;;;;;;25.69;27.24;100122.31;20968492;28;20504;-82
2023/07/14 14:25:19;;;;;;;3.33;1.50;;;;;;;25.26;28.24;100110.69;20943376;28;20631;-80
2023/07/14 14:35:34;;;;;;;4.68;1.77;;;;;;;26.02;28.33;100094.53;20942013;28;20547;-81
2023/07/14 14:45:37;;;;;;;4.07;1.63;;;;;;;26.39;27.25;100075.28;20939702;28;20219;-81
2023/07/14 14:55:39;;;;;;;5.43;1.50;;;;;;;26.64;26.77;100038.03;20959633;28;20341;-80
2023/07/14 15:05:43;;;;;;;5.68;1.73;;;;;;;25.96;27.73;100032.91;20967438;28;20687;-83
2023/07/14 15:15:50;;;;;;;3.22;1.42;;;;;;;25.51;27.57;100018.06;20952425;28;20223;-80
2023/07/14 15:25:54;;;;;;;5.13;1.70;;;;;;;26.15;27.34;100000.34;20967015;28;20218;-87
2023/07/14 15:35:56;;;;;;;3.35;1.45;;;;;;;25.54;26.11;99977.66;20935369;28;20196;-84
2023/07/14 15:46:01;;;;;;;7.22;3.08;;;;;;;25.95;25.73;99973.59;20957985;28;20191;-85
2023/07/14 15:56:05;;;;;;;2.83;1.50;;;;;;;26.35;24.58;99923.28;20954689;28;20217;-80
2023/07/14 16:06:16;;;;;;;1.92;1.25;;;;;;;26.03;25.31;99911.63;20914716;28;20583;-76
2023/07/14 16:16:20;;;;;;;3.40;1.40;;;;;;;26.18;25.71;99892.75;20904355;28;20366;-78
2023/07/14 16:26:24;;;;;;;3.88;1.40;;;;;;;25.41;27.23;99893.16;20973214;28;20550;-78
2023/07/14 16:36:29;;;;;;;2.70;1.35;;;;;;;25.29;28.59;99879.41;20909841;28;20295;-80
2023/07/14 16:46:56;;;;;;;5.53;1.33;;;;;;;26.45;27.37;99862.88;20946001;28;20215;-80
2023/07/14 16:56:59;;;;;;;4.65;1.70;;;;;;;25.84;27.72;99851.94;20929648;28;20275;-81
2023/07/14 17:07:03;;;;;;;3.25;1.85;;;;;;;25.64;27.88;99823.91;20945649;28;20258;-78
2023/07/14 17:17:05;;;;;;;6.05;1.25;;;;;;;26.12;27.65;99808.00;20959003;28;20231;-80
2023/07/14 17:27:17;;;;;;;2.55;1.10;;;;;;;25.63;28.59;99809.94;20938946;28;20257;-81
2023/07/14 17:37:23;;;;;;;3.60;1.02;;;;;;;25.39;28.01;99786.19;20950560;28;20264;-85
2023/07/14 17:47:26;;;;;;;5.57;1.27;;;;;;;25.55;28.01;99771.84;20978838;28;20223;-82
2023/07/14 17:57:30;;;;;;;3.28;1.08;;;;;;;26.23;27.46;99770.28;20911155;28;20211;-79
2023/07/14 18:07:33;;;;;;;2.30;1.02;;;;;;;26.15;27.01;99769.63;20956870;28;20271;-82
2023/07/14 18:17:35;;;;;;;1.35;1.00;;;;;;;25.36;27.89;99769.78;20959374;28;20228;-79
2023/07/14 18:27:38;;;;;;;3.33;1.45;;;;;;;25.76;28.57;99761.91;20957407;28;20682;-83
2023/07/14 18:37:41;;;;;;;4.65;1.10;;;;;;;26.24;29.50;99755.41;20949783;28;20249;-81
2023/07/14 18:47:43;;;;;;;4.32;1.20;;;;;;;25.89;30.36;99750.50;20968876;28;20215;-81
2023/07/14 18:57:50;;;;;;;2.38;1.17;;;;;;;24.62;30.23;99766.28;20953566;28;20268;-80
2023/07/14 19:07:53;;;;;;;3.80;1.63;;;;;;;25.75;29.96;99751.66;20929699;28;20613;-79
2023/07/14 19:17:55;;;;;;;3.20;1.40;;;;;;;25.22;30.82;99749.94;20943987;28;20505;-84
2023/07/14 19:27:58;;;;;;;3.17;1.13;;;;;;;24.90;31.16;99759.22;20944484;28;20533;-81
2023/07/14 19:38:04;;;;;;;2.92;1.60;;;;;;;24.61;32.48;99764.66;20911384;28;20215;-83
2023/07/14 19:48:21;;;;;;;5.40;1.67;;;;;;;24.58;33.36;99746.22;20945220;28;20272;-82
2023/07/14 19:58:26;;;;;;;6.68;1.70;;;;;;;24.17;33.35;99746.53;20961325;28;20227;-82
2023/07/14 20:08:28;;;;;;;1.63;1.20;;;;;;;24.16;33.62;99738.38;20943866;28;20538;-79
2023/07/14 20:18:32;;;;;;;3.08;1.70;;;;;;;23.76;33.97;99720.91;20958688;28;20227;-82
2023/07/14 20:28:36;;;;;;;4.93;1.38;;;;;;;23.16;33.94;99713.13;20947731;28;20256;-82
2023/07/14 20:38:40;;;;;;;5.63;1.70;;;;;;;22.93;35.20;99721.59;20962751;28;20507;-84
2023/07/14 20:48:42;;;;;;;3.58;1.83;;;;;;;23.21;34.10;99712.66;20973567;28;20632;-81
2023/07/14 20:58:47;;;;;;;3.22;1.65;;;;;;;23.26;35.12;99712.16;20971366;28;20211;-81
2023/07/14 21:08:51;;;;;;;4.22;1.85;;;;;;;22.31;35.21;99694.00;20967051;28;20196;-82
2023/07/14 21:18:53;;;;;;;7.53;1.92;;;;;;;23.47;33.38;99685.22;20947944;28;20285;-84
2023/07/14 21:28:58;;;;;;;6.15;1.90;;;;;;;22.59;34.23;99669.97;20973981;28;20663;-81
2023/07/14 21:39:01;;;;;;;6.82;2.10;;;;;;;22.52;34.71;99665.13;20967419;28;20249;-84
2023/07/14 21:49:11;;;;;;;3.35;2.35;;;;;;;22.66;34.00;99649.81;20989593;28;20344;-82
2023/07/14 21:59:19;;;;;;;5.03;2.05;;;;;;;22.77;35.10;99648.44;20957148;28;20219;-81
2023/07/14 22:09:22;;;;;;;4.53;1.95;;;;;;;22.39;35.47;99635.38;20946233;28;20191;-81
2023/07/14 22:19:24;;;;;;;5.15;2.05;;;;;;;22.44;35.77;99638.59;20985199;28;20223;-82
2023/07/14 22:29:27;;;;;;;3.08;1.90;;;;;;;22.01;36.08;99641.06;20973465;28;20199;-83
2023/07/14 22:39:30;;;;;;;6.15;2.13;;;;;;;21.99;37.15;99631.25;20987352;28;20260;-79
2023/07/14 22:49:33;;;;;;;2.90;1.80;;;;;;;22.17;36.91;99625.38;20951642;28;20216;-79
2023/07/14 22:59:35;;;;;;;5.10;1.98;;;;;;;22.19;34.12;99611.44;20947085;28;20566;-84
2023/07/14 23:09:37;;;;;;;2.90;1.60;;;;;;;22.50;32.69;99598.78;20905128;28;20219;-83
2023/07/14 23:19:40;;;;;;;3.80;0.95;;;;;;;22.54;31.26;99599.56;20965729;28;20249;-79
2023/07/14 23:29:42;;;;;;;1.70;1.08;;;;;;;22.98;30.77;99589.19;20957210;28;20191;-84
2023/07/14 23:39:45;;;;;;;1.98;0.98;;;;;;;22.36;31.33;99576.00;20941211;28;20219;-78
2023/07/14 23:49:48;;;;;;;1.45;1.15;;;;;;;22.86;30.49;99565.50;20967364;28;20268;-82
2023/07/14 23:59:50;;;;;;;3.50;1.00;;;;;;;22.97;31.19;99564.59;20938788;28;20211;-82
